sensor_id;sensor_type;location;lat;lon;timestamp;pressure;altitude;pressure_sealevel;temperature;humidity
19811;BME280;10065;49.632;8.346;2023-02-28T00:01:08;101637.88;;;3.56;46.12
19811;BME280;10065;49.632;8.346;2023-02-28T00:03:37;101641.34;;;3.57;46.13
19811;BME280;10065;49.632;8.346;2023-02-28T00:06:07;101649.81;;;3.62;46.11
19811;BME280;10065;49.632;8.346;2023-02-28T00:08:36;101636.91;;;3.76;45.90
19811;BME280;10065;49.632;8.346;2023-02-28T00:11:06;101643.06;;;3.92;45.54
19811;BME280;10065;49.632;8.346;2023-02-28T00:13:36;101641.69;;;3.85;45.56
19811;BME280;10065;49.632;8.346;2023-02-28T00:16:06;101645.69;;;3.75;45.89
19811;BME280;10065;49.632;8.346;2023-02-28T00:18:34;101630.94;;;3.72;46.04
19811;BME280;10065;49.632;8.346;2023-02-28T00:21:04;101635.09;;;3.59;46.30
19811;BME280;10065;49.632;8.346;2023-02-28T00:23:32;101638.88;;;3.54;46.44
19811;BME280;10065;49.632;8.346;2023-02-28T00:26:00;101639.19;;;3.65;46.39
19811;BME280;10065;49.632;8.346;2023-02-28T00:28:28;101633.16;;;3.63;46.36
19811;BME280;10065;49.632;8.346;2023-02-28T00:30:56;101636.56;;;3.65;46.37
19811;BME280;10065;49.632;8.346;2023-02-28T00:33:26;101640.44;;;3.58;46.66
19811;BME280;10065;49.632;8.346;2023-02-28T00:36:02;101636.50;;;3.66;46.76
19811;BME280;10065;49.632;8.346;2023-02-28T00:38:32;101642.75;;;3.64;46.68
19811;BME280;10065;49.632;8.346;2023-02-28T00:40:59;101634.25;;;3.59;46.76
19811;BME280;10065;49.632;8.346;2023-02-28T00:43:32;101634.34;;;3.57;46.86
19811;BME280;10065;49.632;8.346;2023-02-28T00:46:00;101643.97;;;3.57;46.97
19811;BME280;10065;49.632;8.346;2023-02-28T00:48:27;101642.94;;;3.42;46.96
19811;BME280;10065;49.632;8.346;2023-02-28T00:50:55;101647.34;;;3.42;47.29
19811;BME280;10065;49.632;8.346;2023-02-28T00:53:23;101644.63;;;3.43;47.37
19811;BME280;10065;49.632;8.346;2023-02-28T00:55:52;101646.75;;;3.35;47.48
19811;BME280;10065;49.632;8.346;2023-02-28T00:58:20;101645.78;;;3.37;47.62
19811;BME280;10065;49.632;8.346;2023-02-28T01:00:47;101640.97;;;3.28;47.71
19811;BME280;10065;49.632;8.346;2023-02-28T01:03:16;101643.75;;;3.25;48.00
19811;BME280;10065;49.632;8.346;2023-02-28T01:05:44;101641.56;;;3.16;47.59
19811;BME280;10065;49.632;8.346;2023-02-28T01:08:13;101634.31;;;3.21;47.95
19811;BME280;10065;49.632;8.346;2023-02-28T01:10:41;101635.81;;;3.08;48.32
19811;BME280;10065;49.632;8.346;2023-02-28T01:13:10;101639.44;;;3.24;48.19
19811;BME280;10065;49.632;8.346;2023-02-28T01:15:40;101639.66;;;3.01;48.79
19811;BME280;10065;49.632;8.346;2023-02-28T01:18:09;101643.53;;;2.92;49.02
19811;BME280;10065;49.632;8.346;2023-02-28T01:20:37;101633.84;;;2.94;49.02
19811;BME280;10065;49.632;8.346;2023-02-28T01:23:05;101629.53;;;2.93;49.00
19811;BME280;10065;49.632;8.346;2023-02-28T01:25:34;101634.69;;;2.95;49.12
19811;BME280;10065;49.632;8.346;2023-02-28T01:28:01;101635.63;;;2.94;49.19
19811;BME280;10065;49.632;8.346;2023-02-28T01:30:31;101628.41;;;2.99;49.26
19811;BME280;10065;49.632;8.346;2023-02-28T01:32:59;101627.47;;;3.00;48.96
19811;BME280;10065;49.632;8.346;2023-02-28T01:35:27;101635.56;;;2.95;49.19
19811;BME280;10065;49.632;8.346;2023-02-28T01:37:54;101626.84;;;2.95;49.16
19811;BME280;10065;49.632;8.346;2023-02-28T01:40:32;101635.00;;;2.89;49.38
19811;BME280;10065;49.632;8.346;2023-02-28T01:42:59;101630.81;;;2.85;49.42
19811;BME280;10065;49.632;8.346;2023-02-28T01:45:28;101626.72;;;2.79;49.61
19811;BME280;10065;49.632;8.346;2023-02-28T01:48:01;101621.66;;;2.75;49.98
19811;BME280;10065;49.632;8.346;2023-02-28T01:50:33;101618.78;;;2.81;49.64
19811;BME280;10065;49.632;8.346;2023-02-28T01:53:04;101616.34;;;2.76;49.76
19811;BME280;10065;49.632;8.346;2023-02-28T01:55:33;101617.84;;;2.82;49.75
19811;BME280;10065;49.632;8.346;2023-02-28T01:58:04;101616.34;;;2.76;49.85
19811;BME280;10065;49.632;8.346;2023-02-28T02:00:33;101608.44;;;2.78;49.75
19811;BME280;10065;49.632;8.346;2023-02-28T02:03:10;101604.59;;;2.85;49.76
19811;BME280;10065;49.632;8.346;2023-02-28T02:05:42;101612.81;;;2.77;49.83
19811;BME280;10065;49.632;8.346;2023-02-28T02:08:19;101603.06;;;2.81;49.91
19811;BME280;10065;49.632;8.346;2023-02-28T02:10:49;101601.91;;;2.86;49.96
19811;BME280;10065;49.632;8.346;2023-02-28T02:13:36;101598.94;;;2.94;49.76
19811;BME280;10065;49.632;8.346;2023-02-28T02:16:15;101598.38;;;2.87;50.13
19811;BME280;10065;49.632;8.346;2023-02-28T02:18:50;101602.63;;;2.90;49.84
19811;BME280;10065;49.632;8.346;2023-02-28T02:21:47;101597.09;;;2.96;49.80
19811;BME280;10065;49.632;8.346;2023-02-28T02:24:54;101601.84;;;3.07;49.53
19811;BME280;10065;49.632;8.346;2023-02-28T02:27:35;101597.94;;;2.96;49.65
19811;BME280;10065;49.632;8.346;2023-02-28T02:30:19;101599.34;;;3.03;49.32
19811;BME280;10065;49.632;8.346;2023-02-28T02:33:22;101597.72;;;3.01;49.43
19811;BME280;10065;49.632;8.346;2023-02-28T02:36:00;101590.53;;;2.87;49.83
19811;BME280;10065;49.632;8.346;2023-02-28T02:38:33;101585.47;;;2.83;49.92
19811;BME280;10065;49.632;8.346;2023-02-28T02:41:09;101601.72;;;2.53;50.47
19811;BME280;10065;49.632;8.346;2023-02-28T02:43:46;101594.63;;;2.37;51.09
19811;BME280;10065;49.632;8.346;2023-02-28T02:46:19;101594.69;;;2.35;51.56
19811;BME280;10065;49.632;8.346;2023-02-28T02:48:48;101591.59;;;2.46;51.35
19811;BME280;10065;49.632;8.346;2023-02-28T02:51:21;101587.59;;;2.56;51.06
19811;BME280;10065;49.632;8.346;2023-02-28T02:53:53;101582.66;;;2.69;50.69
19811;BME280;10065;49.632;8.346;2023-02-28T02:56:24;101586.63;;;2.58;50.98
19811;BME280;10065;49.632;8.346;2023-02-28T02:58:57;101579.69;;;2.57;51.14
19811;BME280;10065;49.632;8.346;2023-02-28T03:01:27;101590.56;;;2.48;51.15
19811;BME280;10065;49.632;8.346;2023-02-28T03:03:59;101601.97;;;2.47;51.60
19811;BME280;10065;49.632;8.346;2023-02-28T03:06:30;101598.69;;;2.62;51.29
19811;BME280;10065;49.632;8.346;2023-02-28T03:08:59;101606.88;;;2.74;50.91
19811;BME280;10065;49.632;8.346;2023-02-28T03:11:28;101599.84;;;2.74;51.04
19811;BME280;10065;49.632;8.346;2023-02-28T03:14:10;101599.66;;;2.79;50.55
19811;BME280;10065;49.632;8.346;2023-02-28T03:16:53;101595.69;;;2.89;50.87
19811;BME280;10065;49.632;8.346;2023-02-28T03:19:38;101601.44;;;2.97;50.32
19811;BME280;10065;49.632;8.346;2023-02-28T03:22:25;101593.50;;;2.98;50.29
19811;BME280;10065;49.632;8.346;2023-02-28T03:25:02;101602.81;;;3.04;50.07
19811;BME280;10065;49.632;8.346;2023-02-28T03:27:39;101604.66;;;3.02;50.05
19811;BME280;10065;49.632;8.346;2023-02-28T03:30:12;101601.91;;;3.05;50.18
19811;BME280;10065;49.632;8.346;2023-02-28T03:32:51;101606.38;;;3.03;49.91
19811;BME280;10065;49.632;8.346;2023-02-28T03:35:22;101600.34;;;3.01;50.05
19811;BME280;10065;49.632;8.346;2023-02-28T03:37:55;101599.66;;;2.97;50.15
19811;BME280;10065;49.632;8.346;2023-02-28T03:40:29;101583.34;;;2.91;50.20
19811;BME280;10065;49.632;8.346;2023-02-28T03:43:02;101589.09;;;2.99;50.30
19811;BME280;10065;49.632;8.346;2023-02-28T03:45:33;101586.19;;;3.05;50.15
19811;BME280;10065;49.632;8.346;2023-02-28T03:48:08;101594.84;;;3.07;49.84
19811;BME280;10065;49.632;8.346;2023-02-28T03:50:40;101591.94;;;2.94;50.43
19811;BME280;10065;49.632;8.346;2023-02-28T03:53:11;101599.59;;;2.99;50.42
19811;BME280;10065;49.632;8.346;2023-02-28T03:55:44;101601.97;;;3.03;50.14
19811;BME280;10065;49.632;8.346;2023-02-28T03:58:15;101604.16;;;3.13;50.20
19811;BME280;10065;49.632;8.346;2023-02-28T04:00:50;101599.84;;;3.12;49.80
19811;BME280;10065;49.632;8.346;2023-02-28T04:03:20;101600.34;;;3.01;50.29
19811;BME280;10065;49.632;8.346;2023-02-28T04:05:50;101593.56;;;2.97;50.30
19811;BME280;10065;49.632;8.346;2023-02-28T04:08:21;101606.00;;;2.92;50.25
19811;BME280;10065;49.632;8.346;2023-02-28T04:10:52;101596.69;;;2.68;50.81
19811;BME280;10065;49.632;8.346;2023-02-28T04:13:21;101603.47;;;2.53;51.37
19811;BME280;10065;49.632;8.346;2023-02-28T04:15:49;101600.25;;;2.46;51.58
19811;BME280;10065;49.632;8.346;2023-02-28T04:18:16;101604.13;;;2.38;51.88
19811;BME280;10065;49.632;8.346;2023-02-28T04:20:44;101596.81;;;2.46;51.91
19811;BME280;10065;49.632;8.346;2023-02-28T04:23:12;101595.81;;;2.48;51.72
19811;BME280;10065;49.632;8.346;2023-02-28T04:25:42;101590.78;;;2.44;51.87
19811;BME280;10065;49.632;8.346;2023-02-28T04:28:10;101592.28;;;2.49;51.77
19811;BME280;10065;49.632;8.346;2023-02-28T04:30:38;101589.66;;;2.49;52.06
19811;BME280;10065;49.632;8.346;2023-02-28T04:33:06;101587.81;;;2.51;51.89
19811;BME280;10065;49.632;8.346;2023-02-28T04:35:34;101588.19;;;2.44;51.97
19811;BME280;10065;49.632;8.346;2023-02-28T04:38:02;101584.63;;;2.26;52.85
19811;BME280;10065;49.632;8.346;2023-02-28T04:40:29;101593.09;;;2.31;52.58
19811;BME280;10065;49.632;8.346;2023-02-28T04:42:58;101585.75;;;2.39;52.50
19811;BME280;10065;49.632;8.346;2023-02-28T04:45:26;101592.84;;;2.37;53.60
19811;BME280;10065;49.632;8.346;2023-02-28T04:47:56;101587.06;;;2.29;53.91
19811;BME280;10065;49.632;8.346;2023-02-28T04:50:24;101591.00;;;2.39;53.30
19811;BME280;10065;49.632;8.346;2023-02-28T04:52:51;101586.81;;;2.35;52.91
19811;BME280;10065;49.632;8.346;2023-02-28T04:55:19;101586.03;;;2.33;52.71
19811;BME280;10065;49.632;8.346;2023-02-28T04:57:47;101589.00;;;2.25;52.92
19811;BME280;10065;49.632;8.346;2023-02-28T05:00:17;101591.09;;;2.17;53.35
19811;BME280;10065;49.632;8.346;2023-02-28T05:02:44;101591.09;;;2.17;53.22
19811;BME280;10065;49.632;8.346;2023-02-28T05:05:12;101595.22;;;2.23;53.21
19811;BME280;10065;49.632;8.346;2023-02-28T05:07:44;101602.16;;;2.24;53.28
19811;BME280;10065;49.632;8.346;2023-02-28T05:10:12;101606.47;;;2.25;53.29
19811;BME280;10065;49.632;8.346;2023-02-28T05:12:40;101602.66;;;2.32;53.30
19811;BME280;10065;49.632;8.346;2023-02-28T05:15:12;101603.56;;;2.31;53.43
19811;BME280;10065;49.632;8.346;2023-02-28T05:17:42;101608.16;;;2.26;53.43
19811;BME280;10065;49.632;8.346;2023-02-28T05:20:10;101607.38;;;2.24;53.32
19811;BME280;10065;49.632;8.346;2023-02-28T05:22:42;101606.53;;;2.23;53.56
19811;BME280;10065;49.632;8.346;2023-02-28T05:25:12;101609.09;;;2.25;53.40
19811;BME280;10065;49.632;8.346;2023-02-28T05:27:41;101605.28;;;2.32;53.28
19811;BME280;10065;49.632;8.346;2023-02-28T05:30:10;101599.81;;;2.18;53.66
19811;BME280;10065;49.632;8.346;2023-02-28T05:32:39;101602.25;;;2.02;54.05
19811;BME280;10065;49.632;8.346;2023-02-28T05:35:11;101605.69;;;2.03;54.04
19811;BME280;10065;49.632;8.346;2023-02-28T05:37:39;101609.44;;;1.97;54.42
19811;BME280;10065;49.632;8.346;2023-02-28T05:40:07;101611.59;;;2.08;53.96
19811;BME280;10065;49.632;8.346;2023-02-28T05:42:36;101616.94;;;2.05;54.01
19811;BME280;10065;49.632;8.346;2023-02-28T05:45:05;101611.72;;;2.05;54.03
19811;BME280;10065;49.632;8.346;2023-02-28T05:47:34;101611.97;;;1.99;54.18
19811;BME280;10065;49.632;8.346;2023-02-28T05:50:02;101613.28;;;2.09;53.77
19811;BME280;10065;49.632;8.346;2023-02-28T05:52:31;101611.72;;;2.05;53.77
19811;BME280;10065;49.632;8.346;2023-02-28T05:54:59;101617.09;;;2.02;53.67
19811;BME280;10065;49.632;8.346;2023-02-28T05:57:26;101617.50;;;1.93;54.36
19811;BME280;10065;49.632;8.346;2023-02-28T05:59:54;101611.53;;;1.89;54.16
19811;BME280;10065;49.632;8.346;2023-02-28T06:02:22;101606.81;;;1.97;53.95
19811;BME280;10065;49.632;8.346;2023-02-28T06:04:49;101611.41;;;1.92;53.99
19811;BME280;10065;49.632;8.346;2023-02-28T06:07:17;101621.59;;;1.98;54.19
19811;BME280;10065;49.632;8.346;2023-02-28T06:09:46;101618.00;;;2.01;53.94
19811;BME280;10065;49.632;8.346;2023-02-28T06:12:14;101621.47;;;2.01;54.07
19811;BME280;10065;49.632;8.346;2023-02-28T06:14:42;101621.72;;;1.95;54.13
19811;BME280;10065;49.632;8.346;2023-02-28T06:17:09;101631.22;;;1.98;54.16
19811;BME280;10065;49.632;8.346;2023-02-28T06:19:38;101630.94;;;2.04;54.00
19811;BME280;10065;49.632;8.346;2023-02-28T06:22:07;101630.69;;;2.10;53.81
19811;BME280;10065;49.632;8.346;2023-02-28T06:24:35;101634.34;;;2.06;53.75
19811;BME280;10065;49.632;8.346;2023-02-28T06:27:04;101632.84;;;2.00;53.82
19811;BME280;10065;49.632;8.346;2023-02-28T06:29:33;101636.31;;;2.01;53.92
19811;BME280;10065;49.632;8.346;2023-02-28T06:32:01;101636.97;;;2.06;53.96
19811;BME280;10065;49.632;8.346;2023-02-28T06:34:29;101640.16;;;2.12;53.77
19811;BME280;10065;49.632;8.346;2023-02-28T06:36:57;101648.69;;;2.17;53.49
19811;BME280;10065;49.632;8.346;2023-02-28T06:39:28;101648.75;;;2.16;53.55
19811;BME280;10065;49.632;8.346;2023-02-28T06:41:56;101643.50;;;2.16;53.51
19811;BME280;10065;49.632;8.346;2023-02-28T06:44:25;101648.09;;;2.11;53.48
19811;BME280;10065;49.632;8.346;2023-02-28T06:46:53;101648.22;;;2.08;53.58
19811;BME280;10065;49.632;8.346;2023-02-28T06:49:20;101651.53;;;2.11;53.53
19811;BME280;10065;49.632;8.346;2023-02-28T06:51:48;101647.03;;;2.15;53.40
19811;BME280;10065;49.632;8.346;2023-02-28T06:54:16;101656.72;;;2.13;53.40
19811;BME280;10065;49.632;8.346;2023-02-28T06:56:43;101653.19;;;2.14;53.50
19811;BME280;10065;49.632;8.346;2023-02-28T06:59:11;101660.38;;;2.09;53.79
19811;BME280;10065;49.632;8.346;2023-02-28T07:01:40;101661.94;;;2.13;53.87
19811;BME280;10065;49.632;8.346;2023-02-28T07:04:08;101658.56;;;2.11;53.98
19811;BME280;10065;49.632;8.346;2023-02-28T07:06:36;101658.88;;;2.23;53.64
19811;BME280;10065;49.632;8.346;2023-02-28T07:09:05;101668.50;;;2.23;53.56
19811;BME280;10065;49.632;8.346;2023-02-28T07:11:32;101668.75;;;2.17;53.51
19811;BME280;10065;49.632;8.346;2023-02-28T07:14:00;101665.34;;;2.15;53.95
19811;BME280;10065;49.632;8.346;2023-02-28T07:16:28;101665.75;;;2.26;53.82
19811;BME280;10065;49.632;8.346;2023-02-28T07:18:57;101668.16;;;2.31;53.42
19811;BME280;10065;49.632;8.346;2023-02-28T07:21:25;101672.81;;;2.44;53.01
19811;BME280;10065;49.632;8.346;2023-02-28T07:23:52;101673.38;;;2.51;52.96
19811;BME280;10065;49.632;8.346;2023-02-28T07:26:20;101671.22;;;2.40;53.11
19811;BME280;10065;49.632;8.346;2023-02-28T07:28:48;101669.28;;;2.45;52.93
19811;BME280;10065;49.632;8.346;2023-02-28T07:31:18;101674.25;;;2.51;52.54
19811;BME280;10065;49.632;8.346;2023-02-28T07:33:46;101675.03;;;2.53;52.48
19811;BME280;10065;49.632;8.346;2023-02-28T07:36:16;101683.91;;;2.70;52.23
19811;BME280;10065;49.632;8.346;2023-02-28T07:38:47;101677.34;;;2.80;51.79
19811;BME280;10065;49.632;8.346;2023-02-28T07:41:17;101675.22;;;2.88;51.54
19811;BME280;10065;49.632;8.346;2023-02-28T07:43:45;101679.66;;;2.86;51.48
19811;BME280;10065;49.632;8.346;2023-02-28T07:46:15;101680.38;;;2.89;51.55
19811;BME280;10065;49.632;8.346;2023-02-28T07:48:44;101683.22;;;3.03;51.30
19811;BME280;10065;49.632;8.346;2023-02-28T07:51:12;101676.34;;;3.20;50.81
19811;BME280;10065;49.632;8.346;2023-02-28T07:53:41;101675.00;;;3.30;50.49
19811;BME280;10065;49.632;8.346;2023-02-28T07:56:09;101672.66;;;3.43;50.01
19811;BME280;10065;49.632;8.346;2023-02-28T07:58:37;101680.81;;;3.54;49.61
19811;BME280;10065;49.632;8.346;2023-02-28T08:01:06;101676.91;;;3.62;49.54
19811;BME280;10065;49.632;8.346;2023-02-28T08:03:34;101682.91;;;3.83;48.93
19811;BME280;10065;49.632;8.346;2023-02-28T08:06:03;101682.75;;;4.03;48.59
19811;BME280;10065;49.632;8.346;2023-02-28T08:08:31;101675.41;;;4.27;48.27
19811;BME280;10065;49.632;8.346;2023-02-28T08:11:02;101682.19;;;4.48;47.57
19811;BME280;10065;49.632;8.346;2023-02-28T08:13:30;101692.78;;;4.47;47.46
19811;BME280;10065;49.632;8.346;2023-02-28T08:15:58;101683.38;;;4.59;47.20
19811;BME280;10065;49.632;8.346;2023-02-28T08:18:28;101688.72;;;4.74;46.93
19811;BME280;10065;49.632;8.346;2023-02-28T08:20:56;101687.31;;;5.00;46.59
19811;BME280;10065;49.632;8.346;2023-02-28T08:23:24;101687.81;;;5.22;46.08
19811;BME280;10065;49.632;8.346;2023-02-28T08:25:55;101676.22;;;5.42;45.66
19811;BME280;10065;49.632;8.346;2023-02-28T08:28:24;101679.09;;;5.53;45.22
19811;BME280;10065;49.632;8.346;2023-02-28T08:30:53;101681.13;;;5.33;45.45
19811;BME280;10065;49.632;8.346;2023-02-28T08:33:21;101671.88;;;5.25;45.64
19811;BME280;10065;49.632;8.346;2023-02-28T08:35:52;101676.09;;;5.12;45.71
19811;BME280;10065;49.632;8.346;2023-02-28T08:38:20;101671.13;;;5.08;46.06
19811;BME280;10065;49.632;8.346;2023-02-28T08:40:48;101669.00;;;5.14;45.67
19811;BME280;10065;49.632;8.346;2023-02-28T08:43:16;101668.75;;;5.19;45.57
19811;BME280;10065;49.632;8.346;2023-02-28T08:45:45;101668.31;;;5.26;45.77
19811;BME280;10065;49.632;8.346;2023-02-28T08:48:12;101669.75;;;5.32;45.53
19811;BME280;10065;49.632;8.346;2023-02-28T08:50:43;101669.31;;;5.40;45.17
19811;BME280;10065;49.632;8.346;2023-02-28T08:53:21;101674.41;;;5.58;44.52
19811;BME280;10065;49.632;8.346;2023-02-28T08:55:56;101666.03;;;5.82;44.17
19811;BME280;10065;49.632;8.346;2023-02-28T08:58:24;101673.41;;;6.07;43.36
19811;BME280;10065;49.632;8.346;2023-02-28T09:00:53;101674.41;;;6.48;42.92
19811;BME280;10065;49.632;8.346;2023-02-28T09:03:22;101666.97;;;7.11;42.21
19811;BME280;10065;49.632;8.346;2023-02-28T09:05:55;101663.09;;;8.23;39.93
19811;BME280;10065;49.632;8.346;2023-02-28T09:08:23;101661.84;;;10.35;36.13
19811;BME280;10065;49.632;8.346;2023-02-28T09:10:51;101653.44;;;13.46;31.84
19811;BME280;10065;49.632;8.346;2023-02-28T09:13:20;101650.22;;;15.30;28.57
19811;BME280;10065;49.632;8.346;2023-02-28T09:15:48;101656.66;;;16.44;26.62
19811;BME280;10065;49.632;8.346;2023-02-28T09:18:17;101654.84;;;17.95;24.58
19811;BME280;10065;49.632;8.346;2023-02-28T09:20:45;101662.75;;;18.92;23.62
19811;BME280;10065;49.632;8.346;2023-02-28T09:23:13;101655.81;;;20.36;21.74
19811;BME280;10065;49.632;8.346;2023-02-28T09:25:45;101650.78;;;21.21;21.33
19811;BME280;10065;49.632;8.346;2023-02-28T09:28:13;101648.41;;;21.69;20.44
19811;BME280;10065;49.632;8.346;2023-02-28T09:30:45;101645.09;;;21.16;20.95
19811;BME280;10065;49.632;8.346;2023-02-28T09:33:14;101651.78;;;19.41;22.56
19811;BME280;10065;49.632;8.346;2023-02-28T09:35:43;101658.00;;;18.39;23.11
19811;BME280;10065;49.632;8.346;2023-02-28T09:38:11;101647.91;;;18.65;23.63
19811;BME280;10065;49.632;8.346;2023-02-28T09:40:44;101655.06;;;18.89;22.67
19811;BME280;10065;49.632;8.346;2023-02-28T09:43:15;101655.47;;;18.54;23.02
19811;BME280;10065;49.632;8.346;2023-02-28T09:45:49;101646.78;;;17.95;23.92
19811;BME280;10065;49.632;8.346;2023-02-28T09:48:21;101649.19;;;17.23;24.62
19811;BME280;10065;49.632;8.346;2023-02-28T09:50:55;101655.78;;;17.61;24.18
19811;BME280;10065;49.632;8.346;2023-02-28T09:53:29;101646.69;;;17.30;24.49
19811;BME280;10065;49.632;8.346;2023-02-28T09:56:03;101654.09;;;16.94;24.94
19811;BME280;10065;49.632;8.346;2023-02-28T09:58:37;101648.22;;;17.33;24.65
19811;BME280;10065;49.632;8.346;2023-02-28T10:01:12;101644.34;;;17.35;23.70
19811;BME280;10065;49.632;8.346;2023-02-28T10:03:49;101645.91;;;18.51;23.14
19811;BME280;10065;49.632;8.346;2023-02-28T10:06:22;101639.84;;;20.79;21.36
19811;BME280;10065;49.632;8.346;2023-02-28T10:08:59;101640.75;;;22.43;19.30
19811;BME280;10065;49.632;8.346;2023-02-28T10:11:29;101637.41;;;23.10;18.61
19811;BME280;10065;49.632;8.346;2023-02-28T10:14:02;101632.59;;;22.08;19.36
19811;BME280;10065;49.632;8.346;2023-02-28T10:16:35;101637.75;;;22.59;19.56
19811;BME280;10065;49.632;8.346;2023-02-28T10:19:09;101634.38;;;22.23;19.00
19811;BME280;10065;49.632;8.346;2023-02-28T10:21:46;101642.69;;;21.07;19.26
19811;BME280;10065;49.632;8.346;2023-02-28T10:24:21;101639.91;;;20.85;19.40
19811;BME280;10065;49.632;8.346;2023-02-28T10:26:52;101637.34;;;20.25;20.16
19811;BME280;10065;49.632;8.346;2023-02-28T10:29:23;101632.91;;;21.20;19.56
19811;BME280;10065;49.632;8.346;2023-02-28T10:31:51;101627.97;;;22.02;18.59
19811;BME280;10065;49.632;8.346;2023-02-28T10:34:18;101635.09;;;22.66;17.69
19811;BME280;10065;49.632;8.346;2023-02-28T10:36:48;101633.75;;;22.83;18.08
19811;BME280;10065;49.632;8.346;2023-02-28T10:39:38;101625.22;;;22.51;17.88
19811;BME280;10065;49.632;8.346;2023-02-28T10:42:20;101621.34;;;23.76;17.11
19811;BME280;10065;49.632;8.346;2023-02-28T10:44:48;101625.94;;;23.88;17.16
19811;BME280;10065;49.632;8.346;2023-02-28T10:47:17;101625.00;;;24.87;16.39
19811;BME280;10065;49.632;8.346;2023-02-28T10:49:47;101613.31;;;26.18;15.33
19811;BME280;10065;49.632;8.346;2023-02-28T10:52:33;101617.41;;;26.89;14.73
19811;BME280;10065;49.632;8.346;2023-02-28T10:55:16;101614.50;;;27.50;14.37
19811;BME280;10065;49.632;8.346;2023-02-28T10:57:47;101625.47;;;24.64;16.01
19811;BME280;10065;49.632;8.346;2023-02-28T11:00:17;101623.09;;;22.47;17.18
19811;BME280;10065;49.632;8.346;2023-02-28T11:02:47;101615.09;;;22.95;17.41
19811;BME280;10065;49.632;8.346;2023-02-28T11:05:27;101618.88;;;22.38;17.88
19811;BME280;10065;49.632;8.346;2023-02-28T11:08:01;101614.28;;;20.60;19.23
19811;BME280;10065;49.632;8.346;2023-02-28T11:10:32;101617.19;;;18.52;21.21
19811;BME280;10065;49.632;8.346;2023-02-28T11:13:01;101623.09;;;17.50;22.08
19811;BME280;10065;49.632;8.346;2023-02-28T11:15:31;101619.94;;;16.36;23.50
19811;BME280;10065;49.632;8.346;2023-02-28T11:18:02;101617.53;;;15.82;23.57
19811;BME280;10065;49.632;8.346;2023-02-28T11:20:33;101616.00;;;16.23;23.44
19811;BME280;10065;49.632;8.346;2023-02-28T11:23:03;101609.06;;;16.64;23.18
19811;BME280;10065;49.632;8.346;2023-02-28T11:25:33;101616.03;;;17.33;22.67
19811;BME280;10065;49.632;8.346;2023-02-28T11:28:04;101615.28;;;17.81;21.83
19811;BME280;10065;49.632;8.346;2023-02-28T11:30:35;101610.75;;;17.97;21.60
19811;BME280;10065;49.632;8.346;2023-02-28T11:33:22;101611.56;;;18.14;21.21
19811;BME280;10065;49.632;8.346;2023-02-28T11:35:51;101615.78;;;17.02;22.51
19811;BME280;10065;49.632;8.346;2023-02-28T11:38:21;101613.03;;;16.85;22.78
19811;BME280;10065;49.632;8.346;2023-02-28T11:41:03;101611.47;;;17.25;22.44
19811;BME280;10065;49.632;8.346;2023-02-28T11:43:45;101607.22;;;17.64;22.22
19811;BME280;10065;49.632;8.346;2023-02-28T11:46:25;101609.22;;;18.03;22.52
19811;BME280;10065;49.632;8.346;2023-02-28T11:49:02;101607.13;;;19.32;21.30
19811;BME280;10065;49.632;8.346;2023-02-28T11:51:35;101588.94;;;20.02;20.47
19811;BME280;10065;49.632;8.346;2023-02-28T11:54:24;101593.41;;;20.10;20.25
19811;BME280;10065;49.632;8.346;2023-02-28T11:56:57;101592.22;;;21.00;19.33
19811;BME280;10065;49.632;8.346;2023-02-28T11:59:42;101599.94;;;23.07;18.15
19811;BME280;10065;49.632;8.346;2023-02-28T12:02:25;101581.59;;;24.87;16.28
19811;BME280;10065;49.632;8.346;2023-02-28T12:05:21;101584.78;;;25.84;15.45
19811;BME280;10065;49.632;8.346;2023-02-28T12:08:02;101570.16;;;25.23;15.99
19811;BME280;10065;49.632;8.346;2023-02-28T12:10:41;101581.97;;;23.86;16.81
19811;BME280;10065;49.632;8.346;2023-02-28T12:13:18;101578.31;;;21.82;18.50
19811;BME280;10065;49.632;8.346;2023-02-28T12:21:53;101579.25;;;19.56;19.97
19811;BME280;10065;49.632;8.346;2023-02-28T12:24:45;101579.63;;;20.42;19.31
19811;BME280;10065;49.632;8.346;2023-02-28T12:27:22;101577.53;;;19.01;20.17
19811;BME280;10065;49.632;8.346;2023-02-28T12:29:58;101586.72;;;17.47;22.11
19811;BME280;10065;49.632;8.346;2023-02-28T12:32:30;101581.25;;;17.73;22.60
19811;BME280;10065;49.632;8.346;2023-02-28T12:35:03;101566.97;;;19.76;20.15
19811;BME280;10065;49.632;8.346;2023-02-28T12:37:36;101569.50;;;20.44;20.27
19811;BME280;10065;49.632;8.346;2023-02-28T12:40:11;101570.94;;;20.03;20.00
19811;BME280;10065;49.632;8.346;2023-02-28T12:42:44;101567.31;;;18.65;20.64
19811;BME280;10065;49.632;8.346;2023-02-28T12:45:18;101570.31;;;16.84;22.07
19811;BME280;10065;49.632;8.346;2023-02-28T12:47:51;101568.16;;;15.40;24.22
19811;BME280;10065;49.632;8.346;2023-02-28T12:50:21;101567.50;;;15.74;24.22
19811;BME280;10065;49.632;8.346;2023-02-28T12:52:54;101574.81;;;16.41;24.07
19811;BME280;10065;49.632;8.346;2023-02-28T12:55:29;101570.34;;;17.83;22.81
19811;BME280;10065;49.632;8.346;2023-02-28T12:58:08;101563.94;;;18.08;21.52
19811;BME280;10065;49.632;8.346;2023-02-28T13:00:48;101578.00;;;18.26;21.89
19811;BME280;10065;49.632;8.346;2023-02-28T13:03:51;101568.56;;;18.30;21.87
19811;BME280;10065;49.632;8.346;2023-02-28T13:06:50;101563.88;;;18.24;22.18
19811;BME280;10065;49.632;8.346;2023-02-28T13:09:22;101562.13;;;17.76;23.20
19811;BME280;10065;49.632;8.346;2023-02-28T13:11:50;101555.41;;;17.80;22.73
19811;BME280;10065;49.632;8.346;2023-02-28T13:14:26;101550.50;;;17.35;23.08
19811;BME280;10065;49.632;8.346;2023-02-28T13:17:02;101561.47;;;16.91;23.27
19811;BME280;10065;49.632;8.346;2023-02-28T13:19:38;101561.09;;;15.93;24.50
19811;BME280;10065;49.632;8.346;2023-02-28T13:22:16;101559.91;;;15.52;25.08
19811;BME280;10065;49.632;8.346;2023-02-28T13:24:47;101552.44;;;15.37;25.02
19811;BME280;10065;49.632;8.346;2023-02-28T13:27:35;101561.06;;;14.68;25.33